sensor_id;sensor_type;location;lat;lon;timestamp;P1;durP1;ratioP1;P2;durP2;ratioP2
8183;SDS011;4133;48.752;9.088;2024-03-08T00:01:09;10.77;;;5.17;;
8183;SDS011;4133;48.752;9.088;2024-03-08T00:03:35;8.33;;;4.80;;
8183;SDS011;4133;48.752;9.088;2024-03-08T00:06:01;8.23;;;4.73;;
8183;SDS011;4133;48.752;9.088;2024-03-08T00:08:27;9.53;;;5.33;;
8183;SDS011;4133;48.752;9.088;2024-03-08T00:10:53;6.10;;;4.27;;
8183;SDS011;4133;48.752;9.088;2024-03-08T00:13:19;10.20;;;5.07;;
8183;SDS011;4133;48.752;9.088;2024-03-08T00:15:45;9.10;;;5.10;;
8183;SDS011;4133;48.752;9.088;2024-03-08T00:18:12;6.70;;;4.67;;
8183;SDS011;4133;48.752;9.088;2024-03-08T00:20:38;14.43;;;5.13;;
8183;SDS011;4133;48.752;9.088;2024-03-08T00:23:04;7.77;;;4.93;;
8183;SDS011;4133;48.752;9.088;2024-03-08T00:25:30;13.50;;;5.30;;
8183;SDS011;4133;48.752;9.088;2024-03-08T00:27:56;11.07;;;5.53;;
8183;SDS011;4133;48.752;9.088;2024-03-08T00:30:22;8.10;;;4.93;;
8183;SDS011;4133;48.752;9.088;2024-03-08T00:32:50;11.03;;;5.50;;
8183;SDS011;4133;48.752;9.088;2024-03-08T00:35:16;8.93;;;4.83;;
8183;SDS011;4133;48.752;9.088;2024-03-08T00:37:43;9.30;;;5.03;;
8183;SDS011;4133;48.752;9.088;2024-03-08T00:40:11;6.80;;;4.73;;
8183;SDS011;4133;48.752;9.088;2024-03-08T00:42:38;8.37;;;4.63;;
8183;SDS011;4133;48.752;9.088;2024-03-08T00:45:06;10.10;;;4.97;;
8183;SDS011;4133;48.752;9.088;2024-03-08T00:47:33;10.97;;;5.27;;
8183;SDS011;4133;48.752;9.088;2024-03-08T00:49:58;9.30;;;5.40;;
8183;SDS011;4133;48.752;9.088;2024-03-08T00:52:24;8.77;;;4.43;;
8183;SDS011;4133;48.752;9.088;2024-03-08T00:54:50;8.43;;;5.27;;
8183;SDS011;4133;48.752;9.088;2024-03-08T00:57:17;10.60;;;5.20;;
8183;SDS011;4133;48.752;9.088;2024-03-08T00:59:43;9.40;;;5.07;;
8183;SDS011;4133;48.752;9.088;2024-03-08T01:02:09;8.27;;;5.50;;
8183;SDS011;4133;48.752;9.088;2024-03-08T01:04:35;13.10;;;4.47;;
8183;SDS011;4133;48.752;9.088;2024-03-08T01:07:01;12.50;;;5.20;;
8183;SDS011;4133;48.752;9.088;2024-03-08T01:09:27;9.67;;;4.70;;
8183;SDS011;4133;48.752;9.088;2024-03-08T01:11:54;8.23;;;5.00;;
8183;SDS011;4133;48.752;9.088;2024-03-08T01:14:20;7.67;;;4.47;;
8183;SDS011;4133;48.752;9.088;2024-03-08T01:16:47;9.83;;;5.30;;
8183;SDS011;4133;48.752;9.088;2024-03-08T01:19:13;10.37;;;5.37;;
8183;SDS011;4133;48.752;9.088;2024-03-08T01:21:40;8.00;;;4.70;;
8183;SDS011;4133;48.752;9.088;2024-03-08T01:24:06;8.20;;;4.50;;
8183;SDS011;4133;48.752;9.088;2024-03-08T01:26:32;9.93;;;5.07;;
8183;SDS011;4133;48.752;9.088;2024-03-08T01:29:01;10.93;;;5.03;;
8183;SDS011;4133;48.752;9.088;2024-03-08T01:31:28;7.23;;;4.30;;
8183;SDS011;4133;48.752;9.088;2024-03-08T01:33:55;7.63;;;4.73;;
8183;SDS011;4133;48.752;9.088;2024-03-08T01:36:21;9.70;;;5.13;;
8183;SDS011;4133;48.752;9.088;2024-03-08T01:38:47;7.53;;;4.47;;
8183;SDS011;4133;48.752;9.088;2024-03-08T01:41:13;7.73;;;4.57;;
8183;SDS011;4133;48.752;9.088;2024-03-08T01:43:41;7.00;;;4.43;;
8183;SDS011;4133;48.752;9.088;2024-03-08T01:46:07;7.13;;;4.40;;
8183;SDS011;4133;48.752;9.088;2024-03-08T01:48:34;12.23;;;5.50;;
8183;SDS011;4133;48.752;9.088;2024-03-08T01:51:01;7.53;;;4.87;;
8183;SDS011;4133;48.752;9.088;2024-03-08T01:53:27;7.07;;;5.07;;
8183;SDS011;4133;48.752;9.088;2024-03-08T01:55:56;11.73;;;4.77;;
8183;SDS011;4133;48.752;9.088;2024-03-08T01:58:22;11.07;;;5.00;;
8183;SDS011;4133;48.752;9.088;2024-03-08T02:00:49;8.67;;;5.47;;
8183;SDS011;4133;48.752;9.088;2024-03-08T02:03:15;8.63;;;4.00;;
8183;SDS011;4133;48.752;9.088;2024-03-08T02:05:41;10.57;;;4.50;;
8183;SDS011;4133;48.752;9.088;2024-03-08T02:08:08;10.03;;;4.77;;
8183;SDS011;4133;48.752;9.088;2024-03-08T02:10:45;9.23;;;5.30;;
8183;SDS011;4133;48.752;9.088;2024-03-08T02:13:12;7.30;;;4.67;;
8183;SDS011;4133;48.752;9.088;2024-03-08T02:15:54;7.20;;;3.93;;
8183;SDS011;4133;48.752;9.088;2024-03-08T02:18:20;6.47;;;4.30;;
8183;SDS011;4133;48.752;9.088;2024-03-08T02:20:54;5.47;;;4.00;;
8183;SDS011;4133;48.752;9.088;2024-03-08T02:23:20;10.93;;;4.83;;
8183;SDS011;4133;48.752;9.088;2024-03-08T02:25:47;8.23;;;5.17;;
8183;SDS011;4133;48.752;9.088;2024-03-08T02:28:13;7.83;;;4.80;;
8183;SDS011;4133;48.752;9.088;2024-03-08T02:30:39;7.70;;;4.07;;
8183;SDS011;4133;48.752;9.088;2024-03-08T02:33:05;8.13;;;4.17;;
8183;SDS011;4133;48.752;9.088;2024-03-08T02:35:32;7.93;;;3.97;;
8183;SDS011;4133;48.752;9.088;2024-03-08T02:38:02;6.93;;;4.23;;
8183;SDS011;4133;48.752;9.088;2024-03-08T02:40:28;7.30;;;4.17;;
8183;SDS011;4133;48.752;9.088;2024-03-08T02:42:54;5.67;;;3.53;;
8183;SDS011;4133;48.752;9.088;2024-03-08T02:45:20;6.57;;;4.07;;
8183;SDS011;4133;48.752;9.088;2024-03-08T02:47:46;9.27;;;4.13;;
8183;SDS011;4133;48.752;9.088;2024-03-08T02:50:15;8.07;;;4.53;;
8183;SDS011;4133;48.752;9.088;2024-03-08T02:52:41;6.90;;;3.83;;
8183;SDS011;4133;48.752;9.088;2024-03-08T02:55:08;12.17;;;4.33;;
8183;SDS011;4133;48.752;9.088;2024-03-08T02:57:35;6.13;;;4.33;;
8183;SDS011;4133;48.752;9.088;2024-03-08T03:00:01;6.17;;;4.10;;
8183;SDS011;4133;48.752;9.088;2024-03-08T03:02:29;6.27;;;3.83;;
8183;SDS011;4133;48.752;9.088;2024-03-08T03:04:55;6.23;;;4.13;;
8183;SDS011;4133;48.752;9.088;2024-03-08T03:07:21;7.80;;;4.67;;
8183;SDS011;4133;48.752;9.088;2024-03-08T03:09:47;7.40;;;3.50;;
8183;SDS011;4133;48.752;9.088;2024-03-08T03:12:13;6.30;;;3.57;;
8183;SDS011;4133;48.752;9.088;2024-03-08T03:14:39;10.97;;;4.60;;
8183;SDS011;4133;48.752;9.088;2024-03-08T03:17:05;8.70;;;4.53;;
8183;SDS011;4133;48.752;9.088;2024-03-08T03:19:31;7.07;;;4.30;;
8183;SDS011;4133;48.752;9.088;2024-03-08T03:21:57;6.60;;;3.73;;
8183;SDS011;4133;48.752;9.088;2024-03-08T03:24:23;7.93;;;4.50;;
8183;SDS011;4133;48.752;9.088;2024-03-08T03:26:49;6.87;;;4.10;;
8183;SDS011;4133;48.752;9.088;2024-03-08T03:29:15;8.27;;;4.00;;
8183;SDS011;4133;48.752;9.088;2024-03-08T03:31:42;8.03;;;4.27;;
8183;SDS011;4133;48.752;9.088;2024-03-08T03:34:11;6.00;;;3.33;;
8183;SDS011;4133;48.752;9.088;2024-03-08T03:36:37;6.33;;;3.33;;
8183;SDS011;4133;48.752;9.088;2024-03-08T03:39:07;5.57;;;3.87;;
8183;SDS011;4133;48.752;9.088;2024-03-08T03:41:40;6.33;;;3.87;;
8183;SDS011;4133;48.752;9.088;2024-03-08T03:44:06;4.67;;;3.37;;
8183;SDS011;4133;48.752;9.088;2024-03-08T03:46:33;5.60;;;4.33;;
8183;SDS011;4133;48.752;9.088;2024-03-08T03:48:59;5.87;;;3.53;;
8183;SDS011;4133;48.752;9.088;2024-03-08T03:51:25;6.37;;;4.17;;
8183;SDS011;4133;48.752;9.088;2024-03-08T03:53:51;6.70;;;4.07;;
8183;SDS011;4133;48.752;9.088;2024-03-08T03:56:18;5.77;;;3.90;;
8183;SDS011;4133;48.752;9.088;2024-03-08T03:58:44;5.70;;;3.80;;
8183;SDS011;4133;48.752;9.088;2024-03-08T04:01:10;6.17;;;3.73;;
8183;SDS011;4133;48.752;9.088;2024-03-08T04:03:36;6.93;;;4.00;;
8183;SDS011;4133;48.752;9.088;2024-03-08T04:06:05;9.87;;;4.67;;
8183;SDS011;4133;48.752;9.088;2024-03-08T04:08:31;6.20;;;3.70;;
8183;SDS011;4133;48.752;9.088;2024-03-08T04:10:59;5.47;;;4.30;;
8183;SDS011;4133;48.752;9.088;2024-03-08T04:13:25;7.07;;;3.50;;
8183;SDS011;4133;48.752;9.088;2024-03-08T04:15:51;8.03;;;4.10;;
8183;SDS011;4133;48.752;9.088;2024-03-08T04:18:17;5.70;;;4.13;;
8183;SDS011;4133;48.752;9.088;2024-03-08T04:20:44;5.53;;;4.13;;
8183;SDS011;4133;48.752;9.088;2024-03-08T04:23:10;5.47;;;3.83;;
8183;SDS011;4133;48.752;9.088;2024-03-08T04:25:36;6.03;;;3.70;;
8183;SDS011;4133;48.752;9.088;2024-03-08T04:28:02;10.17;;;4.80;;
8183;SDS011;4133;48.752;9.088;2024-03-08T04:30:28;7.83;;;3.37;;
8183;SDS011;4133;48.752;9.088;2024-03-08T04:32:55;7.47;;;4.27;;
8183;SDS011;4133;48.752;9.088;2024-03-08T04:35:21;6.77;;;4.43;;
8183;SDS011;4133;48.752;9.088;2024-03-08T04:37:47;6.53;;;4.03;;
8183;SDS011;4133;48.752;9.088;2024-03-08T04:40:13;8.17;;;4.63;;
8183;SDS011;4133;48.752;9.088;2024-03-08T04:42:39;9.57;;;4.20;;
8183;SDS011;4133;48.752;9.088;2024-03-08T04:45:06;8.17;;;4.67;;
8183;SDS011;4133;48.752;9.088;2024-03-08T04:47:38;7.17;;;4.20;;
8183;SDS011;4133;48.752;9.088;2024-03-08T04:50:05;7.60;;;4.93;;
8183;SDS011;4133;48.752;9.088;2024-03-08T04:52:31;6.87;;;4.43;;
8183;SDS011;4133;48.752;9.088;2024-03-08T04:54:57;6.67;;;3.83;;
8183;SDS011;4133;48.752;9.088;2024-03-08T04:57:23;5.53;;;3.93;;
8183;SDS011;4133;48.752;9.088;2024-03-08T04:59:50;7.77;;;4.47;;
8183;SDS011;4133;48.752;9.088;2024-03-08T05:02:16;8.50;;;5.47;;
8183;SDS011;4133;48.752;9.088;2024-03-08T05:04:43;8.07;;;4.97;;
8183;SDS011;4133;48.752;9.088;2024-03-08T05:07:09;8.50;;;4.60;;
8183;SDS011;4133;48.752;9.088;2024-03-08T05:09:35;7.20;;;3.90;;
8183;SDS011;4133;48.752;9.088;2024-03-08T05:12:01;8.20;;;4.57;;
8183;SDS011;4133;48.752;9.088;2024-03-08T05:14:27;6.37;;;4.00;;
8183;SDS011;4133;48.752;9.088;2024-03-08T05:16:53;8.07;;;4.77;;
8183;SDS011;4133;48.752;9.088;2024-03-08T05:19:19;9.37;;;4.63;;
8183;SDS011;4133;48.752;9.088;2024-03-08T05:21:45;7.00;;;4.03;;
8183;SDS011;4133;48.752;9.088;2024-03-08T05:24:12;7.30;;;4.50;;
8183;SDS011;4133;48.752;9.088;2024-03-08T05:26:41;8.83;;;4.67;;
8183;SDS011;4133;48.752;9.088;2024-03-08T05:29:07;7.03;;;3.97;;
8183;SDS011;4133;48.752;9.088;2024-03-08T05:31:50;6.43;;;4.33;;
8183;SDS011;4133;48.752;9.088;2024-03-08T05:34:19;5.80;;;3.87;;
8183;SDS011;4133;48.752;9.088;2024-03-08T05:36:47;10.60;;;4.57;;
8183;SDS011;4133;48.752;9.088;2024-03-08T05:39:15;11.87;;;3.97;;
8183;SDS011;4133;48.752;9.088;2024-03-08T05:41:42;7.93;;;3.93;;
8183;SDS011;4133;48.752;9.088;2024-03-08T05:44:08;7.40;;;4.43;;
8183;SDS011;4133;48.752;9.088;2024-03-08T05:46:34;10.40;;;4.20;;
8183;SDS011;4133;48.752;9.088;2024-03-08T05:49:01;7.47;;;4.93;;
8183;SDS011;4133;48.752;9.088;2024-03-08T05:51:31;11.57;;;4.90;;
8183;SDS011;4133;48.752;9.088;2024-03-08T05:53:59;7.50;;;4.40;;
8183;SDS011;4133;48.752;9.088;2024-03-08T05:56:26;9.10;;;4.80;;
8183;SDS011;4133;48.752;9.088;2024-03-08T05:58:54;7.20;;;4.10;;
8183;SDS011;4133;48.752;9.088;2024-03-08T06:01:20;5.40;;;3.87;;
8183;SDS011;4133;48.752;9.088;2024-03-08T06:03:46;7.40;;;4.10;;
8183;SDS011;4133;48.752;9.088;2024-03-08T06:06:14;8.43;;;4.53;;
8183;SDS011;4133;48.752;9.088;2024-03-08T06:08:40;7.17;;;4.57;;
8183;SDS011;4133;48.752;9.088;2024-03-08T06:11:08;8.97;;;5.57;;
8183;SDS011;4133;48.752;9.088;2024-03-08T06:13:35;6.87;;;4.33;;
8183;SDS011;4133;48.752;9.088;2024-03-08T06:16:01;7.83;;;4.37;;
8183;SDS011;4133;48.752;9.088;2024-03-08T06:18:33;7.53;;;4.13;;
8183;SDS011;4133;48.752;9.088;2024-03-08T06:20:59;6.03;;;3.90;;
8183;SDS011;4133;48.752;9.088;2024-03-08T06:23:25;9.03;;;4.47;;
8183;SDS011;4133;48.752;9.088;2024-03-08T06:25:52;8.37;;;4.20;;
8183;SDS011;4133;48.752;9.088;2024-03-08T06:28:19;6.97;;;3.87;;
8183;SDS011;4133;48.752;9.088;2024-03-08T06:30:48;7.47;;;4.57;;
8183;SDS011;4133;48.752;9.088;2024-03-08T06:33:16;6.33;;;3.77;;
8183;SDS011;4133;48.752;9.088;2024-03-08T06:35:42;6.50;;;3.80;;
8183;SDS011;4133;48.752;9.088;2024-03-08T06:38:09;5.60;;;3.70;;
8183;SDS011;4133;48.752;9.088;2024-03-08T06:40:36;7.63;;;3.97;;
8183;SDS011;4133;48.752;9.088;2024-03-08T06:43:02;7.40;;;4.53;;
8183;SDS011;4133;48.752;9.088;2024-03-08T06:45:31;7.13;;;4.37;;
8183;SDS011;4133;48.752;9.088;2024-03-08T06:47:57;6.20;;;3.90;;
8183;SDS011;4133;48.752;9.088;2024-03-08T06:50:23;8.33;;;4.77;;
8183;SDS011;4133;48.752;9.088;2024-03-08T06:52:54;7.60;;;4.13;;
8183;SDS011;4133;48.752;9.088;2024-03-08T06:55:20;7.63;;;4.47;;
8183;SDS011;4133;48.752;9.088;2024-03-08T06:57:46;6.90;;;4.20;;
8183;SDS011;4133;48.752;9.088;2024-03-08T07:00:12;9.30;;;4.97;;
8183;SDS011;4133;48.752;9.088;2024-03-08T07:02:43;9.00;;;4.27;;
8183;SDS011;4133;48.752;9.088;2024-03-08T07:05:11;9.33;;;4.33;;
8183;SDS011;4133;48.752;9.088;2024-03-08T07:07:37;8.93;;;4.93;;
8183;SDS011;4133;48.752;9.088;2024-03-08T07:10:03;6.60;;;4.50;;
8183;SDS011;4133;48.752;9.088;2024-03-08T07:12:29;6.63;;;4.30;;
8183;SDS011;4133;48.752;9.088;2024-03-08T07:14:55;7.13;;;3.93;;
8183;SDS011;4133;48.752;9.088;2024-03-08T07:17:21;6.87;;;4.73;;
8183;SDS011;4133;48.752;9.088;2024-03-08T07:19:49;6.90;;;4.83;;
8183;SDS011;4133;48.752;9.088;2024-03-08T07:22:15;9.53;;;5.10;;
8183;SDS011;4133;48.752;9.088;2024-03-08T07:24:42;9.37;;;5.40;;
8183;SDS011;4133;48.752;9.088;2024-03-08T07:27:35;8.83;;;4.63;;
8183;SDS011;4133;48.752;9.088;2024-03-08T07:30:04;9.83;;;5.07;;
8183;SDS011;4133;48.752;9.088;2024-03-08T07:32:30;9.70;;;4.57;;
8183;SDS011;4133;48.752;9.088;2024-03-08T07:34:56;8.63;;;5.13;;
8183;SDS011;4133;48.752;9.088;2024-03-08T07:37:23;9.90;;;5.27;;
8183;SDS011;4133;48.752;9.088;2024-03-08T07:39:49;6.40;;;3.93;;
8183;SDS011;4133;48.752;9.088;2024-03-08T07:42:15;11.20;;;4.00;;
8183;SDS011;4133;48.752;9.088;2024-03-08T07:44:42;7.10;;;4.40;;
8183;SDS011;4133;48.752;9.088;2024-03-08T07:47:08;6.53;;;4.47;;
8183;SDS011;4133;48.752;9.088;2024-03-08T07:49:35;6.70;;;3.93;;
8183;SDS011;4133;48.752;9.088;2024-03-08T07:52:02;11.07;;;4.57;;
8183;SDS011;4133;48.752;9.088;2024-03-08T07:54:29;10.63;;;5.13;;
8183;SDS011;4133;48.752;9.088;2024-03-08T07:56:55;6.20;;;4.87;;
8183;SDS011;4133;48.752;9.088;2024-03-08T07:59:21;9.57;;;4.43;;
8183;SDS011;4133;48.752;9.088;2024-03-08T08:01:47;9.77;;;5.20;;
8183;SDS011;4133;48.752;9.088;2024-03-08T08:04:13;10.17;;;5.23;;
8183;SDS011;4133;48.752;9.088;2024-03-08T08:06:39;9.33;;;4.93;;
8183;SDS011;4133;48.752;9.088;2024-03-08T08:09:08;8.80;;;5.60;;
8183;SDS011;4133;48.752;9.088;2024-03-08T08:11:40;10.07;;;4.37;;
8183;SDS011;4133;48.752;9.088;2024-03-08T08:14:08;8.37;;;4.67;;
8183;SDS011;4133;48.752;9.088;2024-03-08T08:16:34;9.10;;;4.27;;
8183;SDS011;4133;48.752;9.088;2024-03-08T08:19:02;7.97;;;4.60;;
8183;SDS011;4133;48.752;9.088;2024-03-08T08:21:32;9.83;;;5.20;;
8183;SDS011;4133;48.752;9.088;2024-03-08T08:23:58;9.97;;;4.73;;
8183;SDS011;4133;48.752;9.088;2024-03-08T08:26:25;9.27;;;5.60;;
8183;SDS011;4133;48.752;9.088;2024-03-08T08:28:51;11.47;;;5.23;;
8183;SDS011;4133;48.752;9.088;2024-03-08T08:31:18;13.07;;;8.23;;
8183;SDS011;4133;48.752;9.088;2024-03-08T08:33:44;7.97;;;5.60;;
8183;SDS011;4133;48.752;9.088;2024-03-08T08:36:10;10.23;;;5.33;;
8183;SDS011;4133;48.752;9.088;2024-03-08T08:38:36;8.77;;;4.57;;
8183;SDS011;4133;48.752;9.088;2024-03-08T08:41:04;9.10;;;5.00;;
8183;SDS011;4133;48.752;9.088;2024-03-08T08:43:31;8.73;;;4.70;;
8183;SDS011;4133;48.752;9.088;2024-03-08T08:45:58;7.33;;;3.93;;
8183;SDS011;4133;48.752;9.088;2024-03-08T08:48:24;7.40;;;4.40;;
8183;SDS011;4133;48.752;9.088;2024-03-08T08:50:51;8.20;;;4.40;;
8183;SDS011;4133;48.752;9.088;2024-03-08T08:53:17;8.03;;;4.50;;
8183;SDS011;4133;48.752;9.088;2024-03-08T08:55:43;7.60;;;5.20;;
8183;SDS011;4133;48.752;9.088;2024-03-08T08:58:11;9.50;;;4.63;;
8183;SDS011;4133;48.752;9.088;2024-03-08T09:00:37;9.10;;;4.67;;
8183;SDS011;4133;48.752;9.088;2024-03-08T09:03:04;10.67;;;4.63;;
8183;SDS011;4133;48.752;9.088;2024-03-08T09:05:31;8.33;;;5.13;;
8183;SDS011;4133;48.752;9.088;2024-03-08T09:07:58;6.87;;;4.70;;
8183;SDS011;4133;48.752;9.088;2024-03-08T09:10:25;7.43;;;3.93;;
8183;SDS011;4133;48.752;9.088;2024-03-08T09:12:52;8.27;;;4.40;;
8183;SDS011;4133;48.752;9.088;2024-03-08T09:15:19;5.67;;;3.83;;
8183;SDS011;4133;48.752;9.088;2024-03-08T09:17:46;6.10;;;4.00;;
8183;SDS011;4133;48.752;9.088;2024-03-08T09:20:13;9.83;;;4.50;;
8183;SDS011;4133;48.752;9.088;2024-03-08T09:22:40;6.87;;;4.57;;
8183;SDS011;4133;48.752;9.088;2024-03-08T09:25:06;7.50;;;4.93;;
8183;SDS011;4133;48.752;9.088;2024-03-08T09:27:32;7.37;;;4.60;;
8183;SDS011;4133;48.752;9.088;2024-03-08T09:29:59;8.07;;;4.90;;
8183;SDS011;4133;48.752;9.088;2024-03-08T09:32:26;6.87;;;4.73;;
8183;SDS011;4133;48.752;9.088;2024-03-08T09:34:52;7.73;;;4.87;;
8183;SDS011;4133;48.752;9.088;2024-03-08T09:37:18;8.20;;;4.50;;
8183;SDS011;4133;48.752;9.088;2024-03-08T09:39:44;7.57;;;4.57;;
8183;SDS011;4133;48.752;9.088;2024-03-08T09:42:11;9.33;;;5.33;;
8183;SDS011;4133;48.752;9.088;2024-03-08T09:44:43;9.33;;;4.67;;
8183;SDS011;4133;48.752;9.088;2024-03-08T09:47:11;8.33;;;4.60;;
8183;SDS011;4133;48.752;9.088;2024-03-08T09:49:38;9.20;;;4.67;;
8183;SDS011;4133;48.752;9.088;2024-03-08T09:52:05;6.57;;;4.50;;
8183;SDS011;4133;48.752;9.088;2024-03-08T09:54:32;6.37;;;4.47;;
8183;SDS011;4133;48.752;9.088;2024-03-08T09:56:58;9.70;;;4.87;;
8183;SDS011;4133;48.752;9.088;2024-03-08T09:59:24;6.10;;;4.07;;
8183;SDS011;4133;48.752;9.088;2024-03-08T10:01:51;8.77;;;5.23;;
8183;SDS011;4133;48.752;9.088;2024-03-08T10:04:17;9.13;;;4.60;;
8183;SDS011;4133;48.752;9.088;2024-03-08T10:06:43;7.33;;;4.73;;
8183;SDS011;4133;48.752;9.088;2024-03-08T10:09:09;8.80;;;4.60;;
8183;SDS011;4133;48.752;9.088;2024-03-08T10:11:36;7.57;;;4.70;;
8183;SDS011;4133;48.752;9.088;2024-03-08T10:14:03;8.93;;;4.70;;
8183;SDS011;4133;48.752;9.088;2024-03-08T10:16:31;8.57;;;4.80;;
8183;SDS011;4133;48.752;9.088;2024-03-08T10:18:57;9.10;;;5.03;;
8183;SDS011;4133;48.752;9.088;2024-03-08T10:21:23;11.60;;;5.00;;
8183;SDS011;4133;48.752;9.088;2024-03-08T10:23:50;13.47;;;4.87;;
8183;SDS011;4133;48.752;9.088;2024-03-08T10:26:16;9.13;;;5.97;;
8183;SDS011;4133;48.752;9.088;2024-03-08T10:28:50;9.03;;;4.80;;
8183;SDS011;4133;48.752;9.088;2024-03-08T10:31:17;7.87;;;4.97;;
8183;SDS011;4133;48.752;9.088;2024-03-08T10:33:44;7.20;;;5.00;;
8183;SDS011;4133;48.752;9.088;2024-03-08T10:36:11;6.73;;;4.47;;
8183;SDS011;4133;48.752;9.088;2024-03-08T10:38:38;7.13;;;4.60;;
8183;SDS011;4133;48.752;9.088;2024-03-08T10:41:09;7.87;;;5.00;;
8183;SDS011;4133;48.752;9.088;2024-03-08T10:43:47;8.57;;;5.33;;
8183;SDS011;4133;48.752;9.088;2024-03-08T10:48:43;11.00;;;5.40;;
8183;SDS011;4133;48.752;9.088;2024-03-08T10:51:11;11.00;;;5.17;;
8183;SDS011;4133;48.752;9.088;2024-03-08T10:53:37;8.67;;;4.93;;
8183;SDS011;4133;48.752;9.088;2024-03-08T10:56:06;6.87;;;4.40;;
8183;SDS011;4133;48.752;9.088;2024-03-08T10:58:34;9.40;;;5.50;;
8183;SDS011;4133;48.752;9.088;2024-03-08T11:01:00;6.33;;;4.50;;
8183;SDS011;4133;48.752;9.088;2024-03-08T11:06:45;6.00;;;4.20;;
8183;SDS011;4133;48.752;9.088;2024-03-08T11:09:31;6.80;;;3.77;;
8183;SDS011;4133;48.752;9.088;2024-03-08T11:14:42;9.93;;;5.10;;
8183;SDS011;4133;48.752;9.088;2024-03-08T11:17:09;6.70;;;4.07;;
8183;SDS011;4133;48.752;9.088;2024-03-08T11:19:35;9.57;;;4.80;;
8183;SDS011;4133;48.752;9.088;2024-03-08T11:22:01;7.50;;;4.80;;
8183;SDS011;4133;48.752;9.088;2024-03-08T11:24:28;7.80;;;4.63;;
8183;SDS011;4133;48.752;9.088;2024-03-08T11:27:03;6.43;;;4.30;;
8183;SDS011;4133;48.752;9.088;2024-03-08T11:32:05;6.97;;;4.93;;
8183;SDS011;4133;48.752;9.088;2024-03-08T11:34:33;9.07;;;4.90;;
8183;SDS011;4133;48.752;9.088;2024-03-08T11:37:03;8.70;;;4.97;;
8183;SDS011;4133;48.752;9.088;2024-03-08T11:39:30;7.00;;;4.47;;
8183;SDS011;4133;48.752;9.088;2024-03-08T11:41:56;9.60;;;5.93;;
8183;SDS011;4133;48.752;9.088;2024-03-08T11:44:26;7.87;;;4.53;;
8183;SDS011;4133;48.752;9.088;2024-03-08T11:46:52;7.10;;;4.20;;
8183;SDS011;4133;48.752;9.088;2024-03-08T11:49:19;9.63;;;5.17;;
8183;SDS011;4133;48.752;9.088;2024-03-08T11:51:45;7.83;;;4.77;;
8183;SDS011;4133;48.752;9.088;2024-03-08T11:54:12;7.00;;;5.00;;
8183;SDS011;4133;48.752;9.088;2024-03-08T11:56:38;8.47;;;5.00;;
8183;SDS011;4133;48.752;9.088;2024-03-08T11:59:06;17.37;;;4.97;;
8183;SDS011;4133;48.752;9.088;2024-03-08T12:01:37;8.20;;;4.77;;
8183;SDS011;4133;48.752;9.088;2024-03-08T12:04:04;8.37;;;5.37;;
8183;SDS011;4133;48.752;9.088;2024-03-08T12:06:37;8.73;;;5.00;;
8183;SDS011;4133;48.752;9.088;2024-03-08T12:09:07;9.53;;;5.43;;
8183;SDS011;4133;48.752;9.088;2024-03-08T12:11:35;8.30;;;5.43;;
8183;SDS011;4133;48.752;9.088;2024-03-08T12:14:01;7.83;;;5.43;;
8183;SDS011;4133;48.752;9.088;2024-03-08T12:16:27;7.63;;;5.03;;
8183;SDS011;4133;48.752;9.088;2024-03-08T12:18:54;9.67;;;5.50;;
8183;SDS011;4133;48.752;9.088;2024-03-08T12:21:20;7.67;;;5.27;;
8183;SDS011;4133;48.752;9.088;2024-03-08T12:23:50;9.20;;;5.17;;
8183;SDS011;4133;48.752;9.088;2024-03-08T12:26:27;7.57;;;4.97;;
8183;SDS011;4133;48.752;9.088;2024-03-08T12:28:53;8.97;;;5.37;;
8183;SDS011;4133;48.752;9.088;2024-03-08T12:31:19;8.67;;;5.87;;
8183;SDS011;4133;48.752;9.088;2024-03-08T12:33:53;9.83;;;5.43;;
8183;SDS011;4133;48.752;9.088;2024-03-08T12:36:21;8.00;;;5.43;;
8183;SDS011;4133;48.752;9.088;2024-03-08T12:38:47;9.03;;;5.43;;
8183;SDS011;4133;48.752;9.088;2024-03-08T12:41:17;8.00;;;5.25;;
8183;SDS011;4133;48.752;9.088;2024-03-08T12:43:44;9.32;;;5.75;;
8183;SDS011;4133;48.752;9.088;2024-03-08T12:46:14;10.60;;;6.07;;
8183;SDS011;4133;48.752;9.088;2024-03-08T12:48:40;9.45;;;5.90;;
8183;SDS011;4133;48.752;9.088;2024-03-08T12:51:06;12.52;;;6.05;;
8183;SDS011;4133;48.752;9.088;2024-03-08T12:53:32;7.78;;;5.75;;
8183;SDS011;4133;48.752;9.088;2024-03-08T12:55:58;9.35;;;6.05;;
8183;SDS011;4133;48.752;9.088;2024-03-08T12:58:25;10.15;;;5.70;;
8183;SDS011;4133;48.752;9.088;2024-03-08T13:00:51;8.23;;;5.68;;
8183;SDS011;4133;48.752;9.088;2024-03-08T13:03:17;10.05;;;6.40;;
8183;SDS011;4133;48.752;9.088;2024-03-08T13:05:43;10.93;;;5.50;;
8183;SDS011;4133;48.752;9.088;2024-03-08T13:08:10;10.38;;;5.80;;
8183;SDS011;4133;48.752;9.088;2024-03-08T13:10:40;8.70;;;5.63;;
8183;SDS011;4133;48.752;9.088;2024-03-08T13:13:11;8.52;;;5.97;;
8183;SDS011;4133;48.752;9.088;2024-03-08T13:15:40;8.98;;;5.50;;
8183;SDS011;4133;48.752;9.088;2024-03-08T13:18:07;9.90;;;6.50;;
8183;SDS011;4133;48.752;9.088;2024-03-08T13:20:34;10.10;;;6.57;;
8183;SDS011;4133;48.752;9.088;2024-03-08T13:23:03;8.85;;;6.13;;
8183;SDS011;4133;48.752;9.088;2024-03-08T13:25:30;11.95;;;6.22;;
8183;SDS011;4133;48.752;9.088;2024-03-08T13:27:56;9.32;;;5.97;;
8183;SDS011;4133;48.752;9.088;2024-03-08T13:30:24;10.80;;;6.80;;
8183;SDS011;4133;48.752;9.088;2024-03-08T13:32:54;10.88;;;6.60;;
8183;SDS011;4133;48.752;9.088;2024-03-08T13:35:20;9.88;;;6.38;;
8183;SDS011;4133;48.752;9.088;2024-03-08T13:37:52;8.70;;;5.93;;
8183;SDS011;4133;48.752;9.088;2024-03-08T13:40:18;9.73;;;6.70;;
8183;SDS011;4133;48.752;9.088;2024-03-08T13:42:45;7.50;;;5.90;;
8183;SDS011;4133;48.752;9.088;2024-03-08T13:45:11;12.00;;;6.35;;
8183;SDS011;4133;48.752;9.088;2024-03-08T13:47:39;8.10;;;5.97;;
8183;SDS011;4133;48.752;9.088;2024-03-08T13:50:09;7.60;;;5.97;;
8183;SDS011;4133;48.752;9.088;2024-03-08T13:52:38;7.15;;;5.43;;
8183;SDS011;4133;48.752;9.088;2024-03-08T13:55:07;9.43;;;6.45;;
8183;SDS011;4133;48.752;9.088;2024-03-08T13:57:33;7.47;;;5.43;;
8183;SDS011;4133;48.752;9.088;2024-03-08T13:59:59;8.32;;;5.80;;
8183;SDS011;4133;48.752;9.088;2024-03-08T14:02:25;10.15;;;6.00;;
8183;SDS011;4133;48.752;9.088;2024-03-08T14:04:54;8.60;;;6.10;;
8183;SDS011;4133;48.752;9.088;2024-03-08T14:07:20;7.72;;;5.65;;
8183;SDS011;4133;48.752;9.088;2024-03-08T14:09:48;8.18;;;5.43;;
8183;SDS011;4133;48.752;9.088;2024-03-08T14:12:14;12.70;;;6.07;;
8183;SDS011;4133;48.752;9.088;2024-03-08T14:14:42;8.52;;;5.80;;
8183;SDS011;4133;48.752;9.088;2024-03-08T14:17:09;11.73;;;6.53;;
8183;SDS011;4133;48.752;9.088;2024-03-08T14:19:36;8.35;;;5.80;;
8183;SDS011;4133;48.752;9.088;2024-03-08T14:22:04;9.43;;;6.55;;
8183;SDS011;4133;48.752;9.088;2024-03-08T14:24:30;12.60;;;5.82;;
8183;SDS011;4133;48.752;9.088;2024-03-08T14:26:56;10.55;;;6.20;;
8183;SDS011;4133;48.752;9.088;2024-03-08T14:29:24;7.75;;;5.40;;
8183;SDS011;4133;48.752;9.088;2024-03-08T14:31:54;11.55;;;6.57;;
8183;SDS011;4133;48.752;9.088;2024-03-08T14:34:23;10.57;;;6.38;;
8183;SDS011;4133;48.752;9.088;2024-03-08T14:36:52;9.00;;;6.03;;
8183;SDS011;4133;48.752;9.088;2024-03-08T14:39:18;7.45;;;5.53;;
8183;SDS011;4133;48.752;9.088;2024-03-08T14:41:47;8.68;;;5.90;;
8183;SDS011;4133;48.752;9.088;2024-03-08T14:44:13;12.07;;;5.90;;
8183;SDS011;4133;48.752;9.088;2024-03-08T14:46:40;8.05;;;6.25;;
8183;SDS011;4133;48.752;9.088;2024-03-08T14:49:07;10.68;;;6.15;;
8183;SDS011;4133;48.752;9.088;2024-03-08T14:51:33;10.40;;;5.88;;
8183;SDS011;4133;48.752;9.088;2024-03-08T14:54:00;11.50;;;5.90;;
8183;SDS011;4133;48.752;9.088;2024-03-08T14:56:26;9.27;;;5.93;;
8183;SDS011;4133;48.752;9.088;2024-03-08T14:58:52;9.63;;;6.32;;
8183;SDS011;4133;48.752;9.088;2024-03-08T15:01:18;9.38;;;5.75;;
8183;SDS011;4133;48.752;9.088;2024-03-08T15:03:53;10.02;;;6.03;;
8183;SDS011;4133;48.752;9.088;2024-03-08T15:06:19;7.95;;;5.70;;
8183;SDS011;4133;48.752;9.088;2024-03-08T15:08:46;8.35;;;5.80;;
8183;SDS011;4133;48.752;9.088;2024-03-08T15:11:12;10.57;;;6.60;;
8183;SDS011;4133;48.752;9.088;2024-03-08T15:13:46;11.25;;;5.75;;
8183;SDS011;4133;48.752;9.088;2024-03-08T15:16:12;9.85;;;6.10;;
8183;SDS011;4133;48.752;9.088;2024-03-08T15:18:42;9.57;;;5.80;;
8183;SDS011;4133;48.752;9.088;2024-03-08T15:21:11;8.90;;;5.65;;
8183;SDS011;4133;48.752;9.088;2024-03-08T15:23:42;9.60;;;5.90;;